createdAt,value
2023-04-11T00:01:50.179Z,3.87
2023-04-11T00:04:20.802Z,3.50
2023-04-11T00:06:48.821Z,3.60
2023-04-11T00:09:17.292Z,2.80
2023-04-11T00:11:44.834Z,3.43
2023-04-11T00:14:12.945Z,3.47
2023-04-11T00:16:41.624Z,3.20
2023-04-11T00:19:11.897Z,3.23
2023-04-11T00:21:41.853Z,3.27
2023-04-11T00:24:09.364Z,3.10
2023-04-11T00:26:36.866Z,2.90
2023-04-11T00:29:04.193Z,2.53
2023-04-11T00:31:31.680Z,2.70
2023-04-11T00:33:59.119Z,3.07
2023-04-11T00:36:27.319Z,2.10
2023-04-11T00:38:55.304Z,3.30
2023-04-11T00:41:23.106Z,3.20
2023-04-11T00:43:51.072Z,3.43
2023-04-11T00:46:18.793Z,3.27
2023-04-11T00:48:46.382Z,3.33
2023-04-11T00:51:19.023Z,2.97
2023-04-11T00:53:46.931Z,3.20
2023-04-11T00:56:14.744Z,3.03
2023-04-11T00:58:42.460Z,3.13
2023-04-11T01:01:09.964Z,2.60
2023-04-11T01:03:39.951Z,3.43
2023-04-11T01:06:10.503Z,3.30
2023-04-11T01:08:39.770Z,3.30
2023-04-11T01:11:09.233Z,3.17
2023-04-11T01:13:40.368Z,2.80
2023-04-11T01:16:10.179Z,3.03
2023-04-11T01:18:37.860Z,3.03
2023-04-11T01:21:07.312Z,3.33
2023-04-11T01:23:34.804Z,3.07
2023-04-11T01:26:02.251Z,3.13
2023-04-11T01:28:29.741Z,3.23
2023-04-11T01:30:58.034Z,3.30
2023-04-11T01:33:25.729Z,3.00
2023-04-11T01:35:53.265Z,2.97
2023-04-11T01:38:20.938Z,3.33
2023-04-11T01:40:48.563Z,3.10
2023-04-11T01:43:15.934Z,3.50
2023-04-11T01:45:43.492Z,3.50
2023-04-11T01:48:11.039Z,3.17
2023-04-11T01:50:38.528Z,3.00
2023-04-11T01:53:06.099Z,3.00
2023-04-11T01:55:33.523Z,3.27
2023-04-11T01:58:00.944Z,3.20
2023-04-11T02:00:28.313Z,3.00
2023-04-11T02:02:55.856Z,2.90
2023-04-11T02:05:24.209Z,3.30
2023-04-11T02:07:51.700Z,2.53
2023-04-11T02:10:19.120Z,2.80
2023-04-11T02:12:46.623Z,2.73
2023-04-11T02:15:14.013Z,2.80
2023-04-11T02:17:45.330Z,2.63
2023-04-11T02:20:13.946Z,3.60
2023-04-11T02:22:41.933Z,2.95
2023-04-11T02:25:09.569Z,2.50
2023-04-11T02:27:37.471Z,2.87
2023-04-11T02:30:08.215Z,2.63
2023-04-11T02:32:37.841Z,2.80
2023-04-11T02:35:07.982Z,2.70
2023-04-11T02:37:36.099Z,2.87
2023-04-11T02:40:04.711Z,2.88
2023-04-11T02:42:32.104Z,3.20
2023-04-11T02:44:59.822Z,2.87
2023-04-11T02:47:27.150Z,2.67
2023-04-11T02:49:57.433Z,3.00
2023-04-11T02:52:24.841Z,2.73
2023-04-11T02:54:52.425Z,2.80
2023-04-11T02:57:19.707Z,2.70
2023-04-11T02:59:47.099Z,2.60
2023-04-11T03:02:14.894Z,2.50
2023-04-11T03:04:42.326Z,3.07
2023-04-11T03:07:09.774Z,2.57
2023-04-11T03:09:37.163Z,2.63
2023-04-11T03:12:04.527Z,2.67
2023-04-11T03:14:31.945Z,2.60
2023-04-11T03:16:59.422Z,3.00
2023-04-11T03:19:26.886Z,3.00
2023-04-11T03:21:54.201Z,2.90
2023-04-11T03:24:24.827Z,2.70
2023-04-11T03:26:52.149Z,2.53
2023-04-11T03:29:19.537Z,2.55
2023-04-11T03:31:46.949Z,2.53
2023-04-11T03:34:14.286Z,2.30
2023-04-11T03:36:41.646Z,2.93
2023-04-11T03:39:08.935Z,2.60
2023-04-11T03:41:36.271Z,2.60
2023-04-11T03:44:03.716Z,2.67
2023-04-11T03:46:31.616Z,2.60
2023-04-11T03:48:59.084Z,2.90
2023-04-11T03:51:26.890Z,2.53
2023-04-11T03:53:54.303Z,3.23
2023-04-11T03:56:22.137Z,2.80
2023-04-11T03:58:50.643Z,2.50
2023-04-11T04:01:18.036Z,2.60
2023-04-11T04:03:45.868Z,2.60
2023-04-11T04:06:13.774Z,2.20
2023-04-11T04:08:41.429Z,3.10
2023-04-11T04:11:08.803Z,2.90
2023-04-11T04:13:36.467Z,2.72
2023-04-11T04:16:04.353Z,2.50
2023-04-11T04:18:31.929Z,2.83
2023-04-11T04:20:59.760Z,2.13
2023-04-11T04:23:27.172Z,2.53
2023-04-11T04:25:58.163Z,3.33
2023-04-11T04:28:26.291Z,2.87
2023-04-11T04:30:54.761Z,2.42
2023-04-11T04:33:22.211Z,3.05
2023-04-11T04:35:51.765Z,2.70
2023-04-11T04:38:19.512Z,2.67
2023-04-11T04:40:48.419Z,2.78
2023-04-11T04:43:23.460Z,2.92
2023-04-11T04:45:51.278Z,3.45
2023-04-11T04:48:18.807Z,3.10
2023-04-11T04:50:46.360Z,3.35
2023-04-11T04:53:13.722Z,3.03
2023-04-11T04:55:41.603Z,3.00
2023-04-11T04:58:08.986Z,3.22
2023-04-11T05:00:36.787Z,2.95
2023-04-11T05:03:06.027Z,3.05
2023-04-11T05:05:33.620Z,2.80
2023-04-11T05:08:01.493Z,3.70
2023-04-11T05:10:28.998Z,3.05
2023-04-11T05:12:56.782Z,3.15
2023-04-11T05:15:25.260Z,3.75
2023-04-11T05:17:53.024Z,3.45
2023-04-11T05:20:22.133Z,3.05
2023-04-11T05:22:50.696Z,3.00
2023-04-11T05:25:18.189Z,3.70
2023-04-11T05:27:45.866Z,2.90
2023-04-11T05:30:13.819Z,2.95
2023-04-11T05:32:43.133Z,3.30
2023-04-11T05:35:10.944Z,4.47
2023-04-11T05:37:38.593Z,3.33
2023-04-11T05:40:08.964Z,3.30
2023-04-11T05:42:36.725Z,3.38
2023-04-11T05:45:04.474Z,3.30
2023-04-11T05:47:32.477Z,3.15
2023-04-11T05:50:00.224Z,3.55
2023-04-11T05:52:27.778Z,3.60
2023-04-11T05:54:55.287Z,3.22
2023-04-11T05:57:23.677Z,2.97
2023-04-11T05:59:53.263Z,3.50
2023-04-11T06:02:21.317Z,3.15
2023-04-11T06:04:48.976Z,3.42
2023-04-11T06:07:16.454Z,2.97
2023-04-11T06:09:44.645Z,4.15
2023-04-11T06:12:12.338Z,3.13
2023-04-11T06:14:40.706Z,3.28
2023-04-11T06:17:09.663Z,3.10
2023-04-11T06:19:38.001Z,3.05
2023-04-11T06:22:05.530Z,3.20
2023-04-11T06:24:41.289Z,3.70
2023-04-11T06:27:12.937Z,3.42
2023-04-11T06:29:46.769Z,3.20
2023-04-11T06:32:17.704Z,3.53
2023-04-11T06:34:49.355Z,3.13
2023-04-11T06:37:17.610Z,3.05
2023-04-11T06:39:45.498Z,2.83
2023-04-11T06:42:14.534Z,3.30
2023-04-11T06:45:00.830Z,3.10
2023-04-11T06:47:29.174Z,3.22
2023-04-11T06:50:08.036Z,3.03
2023-04-11T06:52:37.794Z,3.13
2023-04-11T06:55:10.921Z,3.33
2023-04-11T06:57:43.168Z,3.13
2023-04-11T07:00:13.750Z,2.60
2023-04-11T07:02:41.881Z,3.40
2023-04-11T07:05:10.473Z,3.00
2023-04-11T07:07:39.469Z,3.10
2023-04-11T07:10:09.003Z,3.05
2023-04-11T07:12:36.865Z,3.03
2023-04-11T07:15:05.106Z,4.05
2023-04-11T07:17:32.821Z,3.50
2023-04-11T07:20:00.649Z,3.65
2023-04-11T07:22:29.736Z,3.50
2023-04-11T07:24:57.701Z,3.00
2023-04-11T07:27:27.004Z,3.38
2023-04-11T07:29:57.376Z,3.58
2023-04-11T07:32:27.089Z,3.33
2023-04-11T07:34:54.968Z,3.20
2023-04-11T07:37:22.777Z,3.38
2023-04-11T07:39:50.247Z,3.58
2023-04-11T07:42:17.763Z,3.30
2023-04-11T07:44:45.217Z,3.40
2023-04-11T07:47:13.112Z,3.70
2023-04-11T07:49:40.990Z,3.72
2023-04-11T07:52:09.182Z,3.63
2023-04-11T07:54:37.132Z,4.30
2023-04-11T07:57:06.232Z,3.28
2023-04-11T07:59:38.511Z,3.30
2023-04-11T08:02:08.138Z,3.65
2023-04-11T08:04:38.476Z,3.88
2023-04-11T08:07:06.971Z,3.25
2023-04-11T08:09:34.663Z,3.72
2023-04-11T08:12:02.153Z,3.55
2023-04-11T08:14:29.865Z,3.35
2023-04-11T08:16:58.097Z,3.50
2023-04-11T08:19:38.723Z,3.78
2023-04-11T08:22:28.125Z,3.80
2023-04-11T08:24:56.458Z,3.88
2023-04-11T08:27:24.042Z,3.78
2023-04-11T08:29:51.798Z,3.88
2023-04-11T08:32:55.557Z,3.65
2023-04-11T08:35:23.376Z,4.25
2023-04-11T08:37:51.039Z,3.67
2023-04-11T08:40:29.997Z,4.35
2023-04-11T08:43:01.590Z,3.55
2023-04-11T08:45:29.931Z,3.63
2023-04-11T08:47:57.679Z,3.40
2023-04-11T08:50:26.437Z,3.47
2023-04-11T08:52:54.609Z,3.20
2023-04-11T08:55:22.187Z,3.40
2023-04-11T08:57:49.740Z,3.50
2023-04-11T09:00:19.427Z,2.97
2023-04-11T09:02:58.360Z,3.38
2023-04-11T09:05:31.495Z,3.25
2023-04-11T09:08:00.965Z,3.10
2023-04-11T09:10:28.573Z,2.80
2023-04-11T09:12:56.602Z,3.10
2023-04-11T09:15:29.862Z,3.50
2023-04-11T09:18:00.674Z,3.17
2023-04-11T09:20:31.868Z,2.90
2023-04-11T09:23:00.122Z,2.70
2023-04-11T09:25:28.284Z,2.92
2023-04-11T09:28:10.255Z,2.75
2023-04-11T09:30:38.086Z,2.72
2023-04-11T09:33:21.976Z,3.15
2023-04-11T09:35:51.637Z,2.60
2023-04-11T09:38:36.588Z,2.90
2023-04-11T09:41:05.815Z,3.40
2023-04-11T09:44:00.301Z,2.75
2023-04-11T09:46:28.289Z,3.03
2023-04-11T09:48:57.072Z,3.00
2023-04-11T09:51:35.888Z,3.50
2023-04-11T09:54:06.036Z,3.20
2023-04-11T09:56:35.261Z,3.17
2023-04-11T09:59:04.260Z,3.53
2023-04-11T10:01:33.446Z,3.42
2023-04-11T10:04:01.608Z,3.75
2023-04-11T10:06:50.359Z,3.25
2023-04-11T10:09:18.944Z,3.20
2023-04-11T10:11:47.021Z,3.20
2023-04-11T10:14:44.489Z,3.30
2023-04-11T10:17:23.659Z,3.17
2023-04-11T10:19:57.670Z,3.40
2023-04-11T10:22:44.056Z,3.10
2023-04-11T10:25:19.248Z,3.50
2023-04-11T10:27:54.904Z,3.38
2023-04-11T10:31:09.377Z,3.63
2023-04-11T10:33:38.614Z,3.55
2023-04-11T10:36:11.217Z,3.22
2023-04-11T10:38:41.820Z,3.60
2023-04-11T10:41:19.898Z,3.65
2023-04-11T10:43:47.980Z,3.38
2023-04-11T10:46:25.998Z,4.10
2023-04-11T10:48:58.788Z,3.45
2023-04-11T10:51:27.941Z,4.18
2023-04-11T10:53:59.609Z,3.90
2023-04-11T10:56:50.909Z,4.25
2023-04-11T10:59:36.596Z,4.13
2023-04-11T11:02:04.396Z,4.50
2023-04-11T11:04:39.617Z,4.22
2023-04-11T11:07:12.443Z,4.25
2023-04-11T11:09:39.813Z,4.60
2023-04-11T11:12:11.955Z,4.90
2023-04-11T11:14:47.260Z,4.80
2023-04-11T11:17:16.325Z,4.63
2023-04-11T11:19:47.792Z,4.95
2023-04-11T11:22:16.469Z,4.95
2023-04-11T11:24:44.212Z,3.72
2023-04-11T11:27:25.268Z,4.28
2023-04-11T11:29:53.427Z,4.28
2023-04-11T11:32:30.017Z,4.80
2023-04-11T11:34:58.860Z,4.40
2023-04-11T11:37:26.256Z,4.38
2023-04-11T11:39:54.035Z,4.30
2023-04-11T11:42:21.928Z,3.83
2023-04-11T11:44:49.498Z,3.60
2023-04-11T11:47:17.141Z,3.47
2023-04-11T11:49:52.962Z,4.13
2023-04-11T11:52:36.376Z,3.80
2023-04-11T11:55:07.594Z,3.60
2023-04-11T11:57:37.509Z,4.05
2023-04-11T12:00:12.663Z,3.80
2023-04-11T12:02:44.006Z,3.67
2023-04-11T12:05:12.119Z,3.53
2023-04-11T12:07:40.683Z,3.30
2023-04-11T12:10:12.065Z,3.35
2023-04-11T12:12:53.222Z,3.70
2023-04-11T12:15:24.157Z,4.07
2023-04-11T12:17:56.488Z,3.97
2023-04-11T12:20:26.705Z,4.30
2023-04-11T12:22:55.435Z,3.65
2023-04-11T12:25:23.445Z,3.88
2023-04-11T12:27:51.066Z,4.05
2023-04-11T12:30:18.770Z,3.83
2023-04-11T12:32:46.246Z,4.05
2023-04-11T12:35:13.837Z,3.80
2023-04-11T12:37:41.664Z,4.05
2023-04-11T12:40:16.575Z,3.72
2023-04-11T12:42:56.365Z,4.07
2023-04-11T12:45:25.866Z,3.72
2023-04-11T12:47:54.426Z,3.90
2023-04-11T12:50:24.385Z,3.85
2023-04-11T12:52:53.099Z,3.70
2023-04-11T12:55:22.041Z,4.10
2023-04-11T12:57:50.271Z,3.72
2023-04-11T13:00:21.595Z,4.40
2023-04-11T13:02:53.842Z,4.13
2023-04-11T13:05:23.793Z,3.65
2023-04-11T13:07:55.070Z,4.30
2023-04-11T13:10:23.251Z,4.00
2023-04-11T13:12:53.661Z,3.60
2023-04-11T13:15:21.812Z,3.72
2023-04-11T13:17:51.323Z,4.10
2023-04-11T13:20:20.967Z,4.00
2023-04-11T13:22:54.658Z,4.00
2023-04-11T13:25:22.385Z,3.40
2023-04-11T13:27:50.305Z,4.07
2023-04-11T13:30:19.295Z,3.67
2023-04-11T13:32:47.164Z,4.00
2023-04-11T13:35:14.623Z,3.80
2023-04-11T13:37:42.400Z,3.80
2023-04-11T13:40:12.740Z,3.13
2023-04-11T13:42:41.150Z,3.67
2023-04-11T13:45:09.758Z,3.60
2023-04-11T13:47:38.751Z,3.90
2023-04-11T13:50:08.830Z,3.58
2023-04-11T13:52:39.023Z,3.60
2023-04-11T13:55:07.119Z,3.40
2023-04-11T13:57:34.456Z,3.80
2023-04-11T14:00:01.978Z,3.60
2023-04-11T14:02:29.556Z,3.70
2023-04-11T14:04:57.196Z,3.45
2023-04-11T14:07:24.507Z,3.78
2023-04-11T14:09:51.832Z,3.50
2023-04-11T14:12:19.230Z,3.70
2023-04-11T14:14:46.672Z,3.40
2023-04-11T14:17:14.113Z,3.78
2023-04-11T14:19:41.906Z,3.40
2023-04-11T14:22:09.547Z,3.40
2023-04-11T14:24:37.184Z,3.15
2023-04-11T14:27:04.699Z,3.35
2023-04-11T14:29:34.618Z,3.13
2023-04-11T14:32:02.251Z,3.67
2023-04-11T14:34:29.858Z,3.70
2023-04-11T14:36:57.274Z,3.67
2023-04-11T14:39:24.663Z,3.40
2023-04-11T14:41:52.091Z,3.45
2023-04-11T14:44:19.780Z,3.00
2023-04-11T14:46:47.243Z,3.30
2023-04-11T14:49:14.625Z,3.22
2023-04-11T14:51:42.471Z,3.42
2023-04-11T14:54:09.824Z,3.17
2023-04-11T14:56:37.208Z,3.45
2023-04-11T14:59:05.140Z,3.60
2023-04-11T15:01:33.093Z,3.10
2023-04-11T15:04:00.725Z,3.00
2023-04-11T15:06:28.837Z,3.58
2023-04-11T15:08:56.725Z,3.60
2023-04-11T15:11:24.044Z,3.20
2023-04-11T15:13:53.017Z,3.40
2023-04-11T15:16:22.078Z,3.53
2023-04-11T15:18:50.031Z,3.40
2023-04-11T15:21:17.671Z,3.90
2023-04-11T15:23:45.301Z,3.50
2023-04-11T15:26:12.699Z,3.35
2023-04-11T15:28:40.184Z,3.30
2023-04-11T15:31:13.010Z,3.53
2023-04-11T15:33:41.165Z,3.50
2023-04-11T15:36:09.070Z,3.42
2023-04-11T15:38:36.944Z,4.00
2023-04-11T15:41:04.914Z,3.58
2023-04-11T15:43:33.019Z,3.50
2023-04-11T15:46:03.524Z,2.90
2023-04-11T15:48:31.145Z,2.90
2023-04-11T15:50:58.662Z,3.25
2023-04-11T15:53:26.799Z,3.22
2023-04-11T15:55:54.243Z,3.30
2023-04-11T15:58:21.752Z,2.78
2023-04-11T16:00:49.072Z,2.97
2023-04-11T16:03:16.901Z,3.00
2023-04-11T16:05:45.112Z,2.72
2023-04-11T16:08:12.450Z,3.08
2023-04-11T16:10:39.952Z,3.15
2023-04-11T16:13:07.905Z,2.70
2023-04-11T16:15:35.234Z,2.70
2023-04-11T16:18:02.840Z,2.50
2023-04-11T16:20:33.240Z,2.75
2023-04-11T16:23:00.867Z,2.42
2023-04-11T16:25:28.562Z,3.00
2023-04-11T16:27:55.987Z,3.63
2023-04-11T16:30:25.418Z,2.70
2023-04-11T16:32:52.974Z,3.10
2023-04-11T16:35:23.295Z,2.60
2023-04-11T16:37:53.681Z,2.65
2023-04-11T16:40:22.132Z,2.40
2023-04-11T16:42:52.683Z,2.85
2023-04-11T16:45:20.440Z,2.53
2023-04-11T16:47:47.949Z,2.92
2023-04-11T16:50:15.781Z,2.65
2023-04-11T16:52:43.529Z,2.85
2023-04-11T16:55:11.200Z,2.78
2023-04-11T16:57:38.509Z,3.40
2023-04-11T17:00:16.513Z,2.90
2023-04-11T17:02:44.071Z,2.95
2023-04-11T17:05:11.746Z,2.90
2023-04-11T17:07:39.238Z,2.70
2023-04-11T17:10:07.777Z,2.45
2023-04-11T17:12:35.092Z,2.25
2023-04-11T17:15:02.819Z,3.08
2023-04-11T17:17:30.279Z,2.72
2023-04-11T17:19:57.738Z,2.42
2023-04-11T17:22:25.385Z,3.03
2023-04-11T17:24:52.758Z,2.78
2023-04-11T17:27:20.055Z,2.67
2023-04-11T17:29:47.638Z,2.45
2023-04-11T17:32:15.322Z,2.30
2023-04-11T17:34:42.650Z,2.40
2023-04-11T17:37:10.194Z,2.70
2023-04-11T17:39:38.078Z,3.15
2023-04-11T17:42:05.665Z,3.00
2023-04-11T17:44:33.062Z,2.70
2023-04-11T17:47:00.732Z,2.60
2023-04-11T17:49:28.264Z,2.72
2023-04-11T17:51:59.245Z,2.45
2023-04-11T17:54:27.201Z,2.50
2023-04-11T17:56:54.884Z,3.47
2023-04-11T17:59:24.335Z,2.78
2023-04-11T18:01:53.680Z,2.50
2023-04-11T18:06:48.742Z,2.65
2023-04-11T18:09:16.200Z,2.72
2023-04-11T18:11:44.180Z,2.70
2023-04-11T18:14:11.836Z,2.63
2023-04-11T18:16:40.527Z,2.40
2023-04-11T18:19:08.590Z,3.00
2023-04-11T18:21:36.427Z,3.15
2023-04-11T18:24:04.346Z,3.15
2023-04-11T18:26:31.766Z,3.00
2023-04-11T18:29:00.583Z,2.90
2023-04-11T18:31:28.177Z,2.95
2023-04-11T18:33:55.988Z,3.03
2023-04-11T18:36:24.876Z,3.53
2023-04-11T18:38:53.527Z,2.60
2023-04-11T18:41:21.139Z,2.58
2023-04-11T18:43:48.729Z,3.08
2023-04-11T18:46:16.475Z,3.00
2023-04-11T18:48:43.985Z,2.90
2023-04-11T18:51:11.379Z,2.92
2023-04-11T18:53:39.700Z,2.83
2023-04-11T18:56:08.012Z,3.20
2023-04-11T18:58:40.012Z,3.00
2023-04-11T19:01:15.770Z,3.42
2023-04-11T19:03:45.001Z,2.75
2023-04-11T19:06:13.349Z,2.78
2023-04-11T19:08:41.145Z,3.22
2023-04-11T19:11:08.645Z,3.03
2023-04-11T19:13:36.076Z,3.10
2023-04-11T19:16:03.604Z,3.10
2023-04-11T19:18:31.159Z,3.35
2023-04-11T19:20:58.491Z,3.15
2023-04-11T19:23:25.951Z,2.95
2023-04-11T19:25:53.618Z,3.40
2023-04-11T19:28:21.530Z,3.45
2023-04-11T19:30:48.913Z,2.67
2023-04-11T19:33:16.401Z,3.50
2023-04-11T19:35:44.056Z,3.47
2023-04-11T19:38:12.136Z,3.40
2023-04-11T19:40:39.517Z,3.13
2023-04-11T19:43:07.852Z,3.45
2023-04-11T19:45:35.283Z,2.95
2023-04-11T19:48:02.856Z,3.10
2023-04-11T19:50:30.302Z,3.17
2023-04-11T19:52:57.721Z,2.85
2023-04-11T19:55:25.517Z,3.58
2023-04-11T19:57:53.017Z,2.90
2023-04-11T20:00:20.449Z,3.47
2023-04-11T20:02:48.747Z,3.20
2023-04-11T20:05:18.400Z,3.33
2023-04-11T20:07:49.254Z,3.47
2023-04-11T20:10:17.687Z,3.20
2023-04-11T20:12:45.296Z,3.20
2023-04-11T20:15:13.074Z,3.53
2023-04-11T20:17:41.401Z,3.92
2023-04-11T20:20:11.472Z,3.08
2023-04-11T20:22:40.531Z,3.10
2023-04-11T20:25:10.034Z,3.30
2023-04-11T20:27:38.337Z,3.13
2023-04-11T20:30:08.789Z,4.00
2023-04-11T20:32:37.301Z,3.42
2023-04-11T20:35:05.367Z,3.33
2023-04-11T20:37:34.578Z,4.28
2023-04-11T20:40:07.562Z,3.17
2023-04-11T20:42:42.548Z,3.40
2023-04-11T20:45:12.684Z,3.63
2023-04-11T20:47:41.391Z,3.60
2023-04-11T20:50:10.849Z,3.70
2023-04-11T20:52:38.481Z,3.92
2023-04-11T20:55:06.181Z,3.50
2023-04-11T20:57:36.235Z,3.53
2023-04-11T21:00:31.023Z,3.53
2023-04-11T21:02:58.595Z,3.50
2023-04-11T21:05:26.603Z,3.40
2023-04-11T21:07:54.592Z,3.50
2023-04-11T21:10:22.242Z,3.38
2023-04-11T21:12:54.332Z,3.38
2023-04-11T21:15:22.374Z,3.40
2023-04-11T21:17:50.738Z,3.47
2023-04-11T21:20:18.658Z,3.25
2023-04-11T21:22:50.700Z,3.80
2023-04-11T21:25:18.327Z,3.55
2023-04-11T21:27:47.002Z,3.55
2023-04-11T21:30:14.896Z,3.60
2023-04-11T21:32:42.442Z,3.50
2023-04-11T21:35:11.543Z,3.22
2023-04-11T21:37:39.005Z,3.08
2023-04-11T21:40:07.213Z,3.78
2023-04-11T21:42:34.624Z,3.28
2023-04-11T21:45:02.211Z,3.38
2023-04-11T21:47:29.642Z,3.22
2023-04-11T21:49:57.079Z,3.80
2023-04-11T21:52:24.445Z,3.28
2023-04-11T21:54:51.780Z,3.25
2023-04-11T21:57:19.107Z,3.63
2023-04-11T21:59:47.238Z,3.40
2023-04-11T22:02:14.978Z,3.50
2023-04-11T22:04:55.737Z,3.55
2023-04-11T22:07:32.400Z,3.33
2023-04-11T22:10:09.394Z,3.20
2023-04-11T22:12:37.333Z,3.70
2023-04-11T22:15:06.575Z,3.53
2023-04-11T22:17:34.595Z,3.28
2023-04-11T22:20:02.144Z,3.42
2023-04-11T22:22:32.636Z,3.45
2023-04-11T22:25:00.539Z,3.55
2023-04-11T22:27:29.617Z,3.88
2023-04-11T22:29:57.114Z,3.63
2023-04-11T22:32:24.646Z,3.50
2023-04-11T22:34:52.147Z,3.60
2023-04-11T22:37:19.613Z,3.50
2023-04-11T22:39:47.086Z,3.67
2023-04-11T22:42:14.809Z,3.80
2023-04-11T22:44:42.347Z,3.80
2023-04-11T22:47:13.649Z,3.58
2023-04-11T22:49:42.336Z,3.38
2023-04-11T22:52:14.161Z,3.65
2023-04-11T22:54:42.994Z,3.40
2023-04-11T22:57:10.701Z,3.80
2023-04-11T22:59:38.102Z,3.67
2023-04-11T23:02:05.797Z,3.85
2023-04-11T23:04:33.257Z,3.80
2023-04-11T23:07:00.717Z,3.85
2023-04-11T23:09:28.498Z,4.00
2023-04-11T23:11:56.158Z,3.42
2023-04-11T23:14:24.553Z,3.63
2023-04-11T23:16:52.018Z,3.55
2023-04-11T23:19:20.066Z,3.90
2023-04-11T23:21:48.189Z,3.72
2023-04-11T23:24:15.981Z,4.22
2023-04-11T23:26:43.518Z,3.70
2023-04-11T23:29:11.658Z,3.75
2023-04-11T23:31:39.125Z,3.70
2023-04-11T23:34:07.200Z,3.95
2023-04-11T23:36:34.636Z,4.20
2023-04-11T23:39:02.438Z,3.90
2023-04-11T23:41:30.386Z,4.20
2023-04-11T23:43:58.178Z,3.88
2023-04-11T23:46:26.485Z,4.00
2023-04-11T23:48:54.215Z,3.92
2023-04-11T23:51:21.738Z,4.10
2023-04-11T23:53:49.764Z,4.43
2023-04-11T23:56:17.171Z,4.20
2023-04-11T23:58:45.911Z,4.00
